createdAt,value
2023-05-06T00:00:43.270Z,12.90
2023-05-06T00:03:11.813Z,12.97
2023-05-06T00:05:38.448Z,12.87
2023-05-06T00:08:06.258Z,12.84
2023-05-06T00:10:33.167Z,12.76
2023-05-06T00:12:59.798Z,12.79
2023-05-06T00:15:32.730Z,12.63
2023-05-06T00:18:01.136Z,12.53
2023-05-06T00:20:28.807Z,12.52
2023-05-06T00:23:02.030Z,12.60
2023-05-06T00:25:28.744Z,12.45
2023-05-06T00:27:55.361Z,12.40
2023-05-06T00:30:28.063Z,12.43
2023-05-06T00:33:01.198Z,12.44
2023-05-06T00:35:27.798Z,12.48
2023-05-06T00:38:15.332Z,12.53
2023-05-06T00:40:41.929Z,12.52
2023-05-06T00:43:09.017Z,12.50
2023-05-06T00:45:37.548Z,12.44
2023-05-06T00:48:06.170Z,12.44
2023-05-06T00:50:34.524Z,12.39
2023-05-06T00:53:03.386Z,12.32
2023-05-06T00:55:31.260Z,12.28
2023-05-06T00:57:58.076Z,12.25
2023-05-06T01:08:46.120Z,12.31
2023-05-06T01:11:44.281Z,12.27
2023-05-06T01:14:26.562Z,12.26
2023-05-06T01:16:58.420Z,12.39
2023-05-06T01:19:39.184Z,12.35
2023-05-06T01:22:07.301Z,12.26
2023-05-06T01:24:42.340Z,12.28
2023-05-06T01:27:09.938Z,12.36
2023-05-06T01:29:39.852Z,12.26
2023-05-06T01:32:16.588Z,12.32
2023-05-06T01:35:06.362Z,12.36
2023-05-06T01:37:49.290Z,12.31
2023-05-06T01:40:17.812Z,12.29
2023-05-06T01:42:48.764Z,12.28
2023-05-06T01:45:16.867Z,12.30
2023-05-06T01:47:46.587Z,12.31
2023-05-06T01:50:15.334Z,12.46
2023-05-06T01:52:42.045Z,12.46
2023-05-06T01:55:09.254Z,12.37
2023-05-06T01:57:36.345Z,12.34
2023-05-06T02:00:02.979Z,12.36
2023-05-06T02:02:32.068Z,12.49
2023-05-06T02:04:58.831Z,12.49
2023-05-06T02:07:27.157Z,12.53
2023-05-06T02:09:53.616Z,12.47
2023-05-06T02:12:20.083Z,12.38
2023-05-06T02:14:48.298Z,12.36
2023-05-06T02:17:18.398Z,12.26
2023-05-06T02:19:44.911Z,12.26
2023-05-06T02:22:11.650Z,12.21
2023-05-06T02:24:38.109Z,12.24
2023-05-06T02:27:05.008Z,12.27
2023-05-06T02:29:31.699Z,12.31
2023-05-06T02:31:58.233Z,12.31
2023-05-06T02:34:24.940Z,12.25
2023-05-06T02:36:51.620Z,12.22
2023-05-06T02:39:18.545Z,12.19
2023-05-06T02:41:45.032Z,12.10
2023-05-06T02:44:11.769Z,12.21
2023-05-06T02:46:38.235Z,12.27
2023-05-06T02:49:04.894Z,12.12
2023-05-06T02:51:43.462Z,11.99
2023-05-06T02:54:12.469Z,12.13
2023-05-06T02:56:38.999Z,12.11
2023-05-06T02:59:07.466Z,12.01
2023-05-06T03:01:34.006Z,11.96
2023-05-06T03:04:00.817Z,11.90
2023-05-06T03:06:29.498Z,11.85
2023-05-06T03:08:55.984Z,11.85
2023-05-06T03:11:22.544Z,11.79
2023-05-06T03:13:59.034Z,11.81
2023-05-06T03:16:27.141Z,11.83
2023-05-06T03:18:53.630Z,11.76
2023-05-06T03:21:22.461Z,11.73
2023-05-06T03:23:49.018Z,11.77
2023-05-06T03:26:15.512Z,11.79
2023-05-06T03:28:45.190Z,11.91
2023-05-06T03:31:12.207Z,11.87
2023-05-06T03:33:38.759Z,11.80
2023-05-06T03:36:07.543Z,11.77
2023-05-06T03:38:34.277Z,11.77
2023-05-06T03:41:00.869Z,11.74
2023-05-06T03:43:29.182Z,11.77
2023-05-06T03:45:57.909Z,11.77
2023-05-06T03:48:24.534Z,11.78
2023-05-06T03:50:58.008Z,11.74
2023-05-06T03:53:24.514Z,11.74
2023-05-06T03:55:51.335Z,11.76
2023-05-06T03:58:18.001Z,11.79
2023-05-06T04:00:44.563Z,11.82
2023-05-06T04:03:11.308Z,11.84
2023-05-06T04:05:39.568Z,11.83
2023-05-06T04:08:09.571Z,11.83
2023-05-06T04:10:42.287Z,11.83
2023-05-06T04:13:08.877Z,11.82
2023-05-06T04:15:36.340Z,11.83
2023-05-06T04:18:08.016Z,11.79
2023-05-06T04:20:34.694Z,11.80
2023-05-06T04:23:01.902Z,11.82
2023-05-06T04:25:30.728Z,11.91
2023-05-06T04:27:57.504Z,11.93
2023-05-06T04:30:24.239Z,11.91
2023-05-06T04:32:52.557Z,11.86
2023-05-06T04:35:19.287Z,11.84
2023-05-06T04:37:45.776Z,11.83
2023-05-06T04:40:21.101Z,11.87
2023-05-06T04:42:47.572Z,11.92
2023-05-06T04:45:14.038Z,11.90
2023-05-06T04:47:42.344Z,11.92
2023-05-06T04:50:09.700Z,11.90
2023-05-06T04:52:36.515Z,11.88
2023-05-06T04:55:03.549Z,11.91
2023-05-06T04:57:31.688Z,11.90
2023-05-06T04:59:58.453Z,11.93
2023-05-06T05:02:26.798Z,11.96
2023-05-06T05:04:53.536Z,12.00
2023-05-06T05:07:20.008Z,12.07
2023-05-06T05:09:48.325Z,12.17
2023-05-06T05:12:15.094Z,12.18
2023-05-06T05:14:42.785Z,12.19
2023-05-06T05:17:11.481Z,12.21
2023-05-06T05:19:38.036Z,12.35
2023-05-06T05:22:09.495Z,12.40
2023-05-06T05:24:36.194Z,12.48
2023-05-06T05:27:02.769Z,12.56
2023-05-06T05:29:29.201Z,12.69
2023-05-06T05:32:02.615Z,12.79
2023-05-06T05:34:30.098Z,13.07
2023-05-06T05:36:57.602Z,14.12
2023-05-06T05:39:25.951Z,14.51
2023-05-06T05:41:52.468Z,14.31
2023-05-06T05:44:19.067Z,14.06
2023-05-06T05:46:45.924Z,14.03
2023-05-06T05:49:12.436Z,14.11
2023-05-06T05:51:38.882Z,14.17
2023-05-06T05:54:10.824Z,14.02
2023-05-06T05:56:37.364Z,13.82
2023-05-06T05:59:03.939Z,13.73
2023-05-06T06:01:32.298Z,13.71
2023-05-06T06:03:59.961Z,13.67
2023-05-06T06:06:26.912Z,13.69
2023-05-06T06:08:53.707Z,13.71
2023-05-06T06:11:20.231Z,13.75
2023-05-06T06:13:51.112Z,13.84
2023-05-06T06:16:19.423Z,13.96
2023-05-06T06:18:46.016Z,14.06
2023-05-06T06:21:12.487Z,14.26
2023-05-06T06:23:40.689Z,14.37
2023-05-06T06:26:07.270Z,14.48
2023-05-06T06:28:33.822Z,14.46
2023-05-06T06:31:10.232Z,14.50
2023-05-06T06:33:39.091Z,14.37
2023-05-06T06:36:06.094Z,14.33
2023-05-06T06:38:32.826Z,14.33
2023-05-06T06:40:59.332Z,14.40
2023-05-06T06:43:25.974Z,14.57
2023-05-06T06:46:03.073Z,14.52
2023-05-06T06:48:34.815Z,14.74
2023-05-06T06:51:01.322Z,15.02
2023-05-06T06:53:29.783Z,16.09
2023-05-06T06:55:56.342Z,16.60
2023-05-06T06:58:22.802Z,16.91
2023-05-06T07:00:55.808Z,17.26
2023-05-06T07:03:22.407Z,17.60
2023-05-06T07:05:49.373Z,18.11
2023-05-06T07:08:18.798Z,18.49
2023-05-06T07:10:49.020Z,18.97
2023-05-06T07:13:15.921Z,19.08
2023-05-06T07:15:42.916Z,19.24
2023-05-06T07:18:09.945Z,19.53
2023-05-06T07:20:36.574Z,20.20
2023-05-06T07:23:05.322Z,20.16
2023-05-06T07:25:32.381Z,19.68
2023-05-06T07:27:58.928Z,19.52
2023-05-06T07:30:26.249Z,20.05
2023-05-06T07:32:53.345Z,20.37
2023-05-06T07:35:19.942Z,20.18
2023-05-06T07:37:46.912Z,20.01
2023-05-06T07:42:42.996Z,20.92
2023-05-06T07:45:10.601Z,21.23
2023-05-06T07:47:37.432Z,21.46
2023-05-06T07:50:08.678Z,21.80
2023-05-06T07:52:35.348Z,21.95
2023-05-06T07:55:01.913Z,21.99
2023-05-06T07:57:28.433Z,22.13
2023-05-06T08:00:01.460Z,22.05
2023-05-06T08:02:28.314Z,21.62
2023-05-06T08:04:55.038Z,21.63
2023-05-06T08:07:23.561Z,21.98
2023-05-06T08:09:50.054Z,22.15
2023-05-06T08:12:17.581Z,22.25
2023-05-06T08:14:48.640Z,22.32
2023-05-06T08:17:15.297Z,22.36
2023-05-06T08:19:41.808Z,22.17
2023-05-06T08:22:08.376Z,21.96
2023-05-06T08:24:34.878Z,21.85
2023-05-06T08:27:05.424Z,22.08
2023-05-06T08:29:32.088Z,21.72
2023-05-06T08:31:58.637Z,21.69
2023-05-06T08:34:25.297Z,21.80
2023-05-06T08:36:54.024Z,21.69
2023-05-06T08:39:20.632Z,21.85
2023-05-06T08:41:54.481Z,22.21
2023-05-06T08:44:23.916Z,22.13
2023-05-06T08:46:50.595Z,22.47
2023-05-06T08:49:21.089Z,22.54
2023-05-06T08:51:53.936Z,22.43
2023-05-06T08:54:25.213Z,22.61
2023-05-06T08:56:54.775Z,22.88
2023-05-06T08:59:25.283Z,23.08
2023-05-06T09:01:53.546Z,23.19
2023-05-06T09:04:20.207Z,23.31
2023-05-06T09:06:46.876Z,23.31
2023-05-06T09:09:14.898Z,23.35
2023-05-06T09:11:41.501Z,23.28
2023-05-06T09:14:18.396Z,23.21
2023-05-06T09:16:47.203Z,23.15
2023-05-06T09:19:16.748Z,23.33
2023-05-06T09:21:47.647Z,23.23
2023-05-06T09:24:15.978Z,22.93
2023-05-06T09:26:44.824Z,22.61
2023-05-06T09:29:13.191Z,22.99
2023-05-06T09:31:43.250Z,23.22
2023-05-06T09:34:10.780Z,23.30
2023-05-06T09:36:37.457Z,23.00
2023-05-06T09:39:05.378Z,23.24
2023-05-06T09:41:32.261Z,23.42
2023-05-06T09:44:04.579Z,23.52
2023-05-06T09:46:35.140Z,23.40
2023-05-06T09:49:02.079Z,23.43
2023-05-06T09:51:33.363Z,23.69
2023-05-06T09:54:01.220Z,23.93
2023-05-06T09:56:30.784Z,23.52
2023-05-06T09:59:01.422Z,23.29
2023-05-06T10:01:36.838Z,23.64
2023-05-06T10:04:09.091Z,23.58
2023-05-06T10:06:36.924Z,23.94
2023-05-06T10:09:06.261Z,23.58
2023-05-06T10:11:37.385Z,23.70
2023-05-06T10:14:04.794Z,23.91
2023-05-06T10:16:33.479Z,23.99
2023-05-06T10:19:00.737Z,23.96
2023-05-06T10:21:32.441Z,23.75
2023-05-06T10:24:09.620Z,23.99
2023-05-06T10:26:37.541Z,24.15
2023-05-06T10:29:10.125Z,24.19
2023-05-06T10:31:48.342Z,24.15
2023-05-06T10:34:16.439Z,24.56
2023-05-06T10:36:43.636Z,24.22
2023-05-06T10:39:17.897Z,24.23
2023-05-06T10:41:47.384Z,24.18
2023-05-06T10:44:14.139Z,24.26
2023-05-06T10:47:07.587Z,24.57
2023-05-06T10:49:34.138Z,24.69
2023-05-06T10:52:14.808Z,25.00
2023-05-06T10:54:51.542Z,24.48
2023-05-06T10:57:20.198Z,24.56
2023-05-06T10:59:48.403Z,24.71
2023-05-06T11:02:17.522Z,24.74
2023-05-06T11:04:52.204Z,24.55
2023-05-06T11:07:23.239Z,24.06
2023-05-06T11:10:06.273Z,24.03
2023-05-06T11:12:55.288Z,24.07
2023-05-06T11:15:27.074Z,24.00
2023-05-06T11:17:56.507Z,24.11
2023-05-06T11:20:25.479Z,24.06
2023-05-06T11:22:53.385Z,24.44
2023-05-06T11:25:39.090Z,24.35
2023-05-06T11:28:15.345Z,24.52
2023-05-06T11:30:43.946Z,24.85
2023-05-06T11:33:18.832Z,24.92
2023-05-06T11:35:45.773Z,24.89
2023-05-06T11:38:12.353Z,25.10
2023-05-06T11:40:43.380Z,25.27
2023-05-06T11:43:14.060Z,25.25
2023-05-06T11:45:47.152Z,25.12
2023-05-06T11:48:14.709Z,25.20
2023-05-06T11:50:46.329Z,25.14
2023-05-06T11:53:16.134Z,24.97
2023-05-06T11:55:43.743Z,24.96
2023-05-06T11:58:19.766Z,24.89
2023-05-06T12:00:51.971Z,25.01
2023-05-06T12:03:26.125Z,25.33
2023-05-06T12:05:53.229Z,25.07
2023-05-06T12:08:31.524Z,25.06
2023-05-06T12:11:01.641Z,25.26
2023-05-06T12:13:29.227Z,25.01
2023-05-06T12:15:58.400Z,24.39
2023-05-06T12:18:25.714Z,24.16
2023-05-06T12:21:00.170Z,24.16
2023-05-06T12:23:26.754Z,24.23
2023-05-06T12:26:02.401Z,24.24
2023-05-06T12:28:31.088Z,24.27
2023-05-06T12:30:57.722Z,24.34
2023-05-06T12:33:26.406Z,24.17
2023-05-06T12:35:54.760Z,24.22
2023-05-06T12:38:21.370Z,24.27
2023-05-06T12:40:54.506Z,24.46
2023-05-06T12:43:31.717Z,24.53
2023-05-06T12:46:09.093Z,24.80
2023-05-06T12:48:35.861Z,24.73
2023-05-06T12:51:18.378Z,24.75
2023-05-06T12:53:44.822Z,24.67
2023-05-06T12:56:11.333Z,24.65
2023-05-06T12:58:39.585Z,24.80
2023-05-06T13:01:09.164Z,24.67
2023-05-06T13:03:42.682Z,24.83
2023-05-06T13:06:09.276Z,24.81
2023-05-06T13:08:36.155Z,24.76
2023-05-06T13:11:02.766Z,24.81
2023-05-06T13:13:29.302Z,25.12
2023-05-06T13:15:56.454Z,24.87
2023-05-06T13:18:23.118Z,24.70
2023-05-06T13:20:52.088Z,24.86
2023-05-06T13:23:19.591Z,24.77
2023-05-06T13:26:02.772Z,24.63
2023-05-06T13:28:32.335Z,24.69
2023-05-06T13:31:05.502Z,24.86
2023-05-06T13:33:32.020Z,24.92
2023-05-06T13:35:58.448Z,24.85
2023-05-06T13:38:29.596Z,24.78
2023-05-06T13:40:56.152Z,24.94
2023-05-06T13:43:24.730Z,24.91
2023-05-06T13:45:56.574Z,24.93
2023-05-06T13:48:23.017Z,24.92
2023-05-06T13:50:49.712Z,24.98
2023-05-06T13:53:18.118Z,24.90
2023-05-06T13:55:44.637Z,24.70
2023-05-06T13:58:11.260Z,24.59
2023-05-06T14:00:39.735Z,24.58
2023-05-06T14:03:06.286Z,24.72
2023-05-06T14:05:32.873Z,24.51
2023-05-06T14:08:01.147Z,24.53
2023-05-06T14:10:28.184Z,24.55
2023-05-06T14:12:54.899Z,24.62
2023-05-06T14:15:23.666Z,24.40
2023-05-06T14:17:50.242Z,24.33
2023-05-06T14:20:16.777Z,24.56
2023-05-06T14:22:45.416Z,24.53
2023-05-06T14:25:12.600Z,24.64
2023-05-06T14:27:39.474Z,24.74
2023-05-06T14:30:09.383Z,24.51
2023-05-06T14:32:37.026Z,24.46
2023-05-06T14:35:04.060Z,24.45
2023-05-06T14:37:35.039Z,24.34
2023-05-06T14:40:01.550Z,24.33
2023-05-06T14:42:28.167Z,24.37
2023-05-06T14:44:57.422Z,24.54
2023-05-06T14:47:24.133Z,24.74
2023-05-06T14:49:50.935Z,24.71
2023-05-06T14:52:17.589Z,24.54
2023-05-06T14:54:44.835Z,24.52
2023-05-06T14:57:11.723Z,24.42
2023-05-06T14:59:40.179Z,24.31
2023-05-06T15:02:08.610Z,24.45
2023-05-06T15:04:35.382Z,24.53
2023-05-06T15:07:02.910Z,24.50
2023-05-06T15:09:29.428Z,24.25
2023-05-06T15:11:56.136Z,24.18
2023-05-06T15:14:26.722Z,23.98
2023-05-06T15:16:56.936Z,23.90
2023-05-06T15:19:24.198Z,24.01
2023-05-06T15:21:51.358Z,24.11
2023-05-06T15:24:17.855Z,24.16
2023-05-06T15:26:44.757Z,24.12
2023-05-06T15:29:11.412Z,24.11
2023-05-06T15:31:41.117Z,24.08
2023-05-06T15:34:09.774Z,23.90
2023-05-06T15:36:36.690Z,23.77
2023-05-06T15:39:05.531Z,23.72
2023-05-06T15:41:39.437Z,23.78
2023-05-06T15:44:06.588Z,23.89
2023-05-06T15:46:33.491Z,23.87
2023-05-06T15:49:29.642Z,23.83
2023-05-06T15:51:49.345Z,23.84
2023-05-06T15:54:20.492Z,23.93
2023-05-06T15:56:47.102Z,23.95
2023-05-06T15:59:13.721Z,23.96
2023-05-06T16:02:24.438Z,23.88
2023-05-06T16:04:30.476Z,23.89
2023-05-06T16:06:59.418Z,23.89
2023-05-06T16:09:25.966Z,23.84
2023-05-06T16:11:52.627Z,23.79
2023-05-06T16:14:20.794Z,23.72
2023-05-06T16:16:47.641Z,23.63
2023-05-06T16:19:14.093Z,23.59
2023-05-06T16:21:40.779Z,23.52
2023-05-06T16:24:12.143Z,23.49
2023-05-06T16:26:38.827Z,23.46
2023-05-06T16:29:07.184Z,23.28
2023-05-06T16:31:34.086Z,23.26
2023-05-06T16:34:00.851Z,23.26
2023-05-06T16:36:30.300Z,23.20
2023-05-06T16:38:56.842Z,23.10
2023-05-06T16:41:23.367Z,22.98
2023-05-06T16:43:51.766Z,22.94
2023-05-06T16:46:18.505Z,22.83
2023-05-06T16:48:45.141Z,22.82
2023-05-06T16:51:15.483Z,22.77
2023-05-06T16:53:42.514Z,22.70
2023-05-06T16:56:09.440Z,22.57
2023-05-06T16:58:42.689Z,22.54
2023-05-06T17:01:09.674Z,22.52
2023-05-06T17:03:40.500Z,22.43
2023-05-06T17:06:07.983Z,22.39
2023-05-06T17:08:36.450Z,22.38
2023-05-06T17:11:06.766Z,22.46
2023-05-06T17:13:34.020Z,22.62
2023-05-06T17:16:00.899Z,22.56
2023-05-06T17:18:27.505Z,22.53
2023-05-06T17:20:56.392Z,22.48
2023-05-06T17:23:24.056Z,22.43
2023-05-06T17:25:51.185Z,22.40
2023-05-06T17:28:18.791Z,22.38
2023-05-06T17:30:48.959Z,22.36
2023-05-06T17:33:16.093Z,22.26
2023-05-06T17:35:42.958Z,22.22
2023-05-06T17:38:12.040Z,22.15
2023-05-06T17:40:38.576Z,22.09
2023-05-06T17:43:08.842Z,22.06
2023-05-06T17:45:35.600Z,22.00
2023-05-06T17:48:02.200Z,21.94
2023-05-06T17:50:30.598Z,21.86
2023-05-06T17:52:57.186Z,21.76
2023-05-06T17:55:24.206Z,21.69
2023-05-06T17:57:52.737Z,21.55
2023-05-06T18:00:19.557Z,21.55
2023-05-06T18:02:46.343Z,21.44
2023-05-06T18:05:13.867Z,21.37
2023-05-06T18:07:41.018Z,21.26
2023-05-06T18:10:08.070Z,21.19
2023-05-06T18:12:36.424Z,21.10
2023-05-06T18:15:03.073Z,21.01
2023-05-06T18:17:29.619Z,20.90
2023-05-06T18:20:03.635Z,20.79
2023-05-06T18:22:30.125Z,20.72
2023-05-06T18:24:56.572Z,20.68
2023-05-06T18:27:26.413Z,20.62
2023-05-06T18:29:52.956Z,20.49
2023-05-06T18:32:19.704Z,20.29
2023-05-06T18:34:48.399Z,20.05
2023-05-06T18:37:14.930Z,19.87
2023-05-06T18:39:42.591Z,19.80
2023-05-06T18:42:11.122Z,19.73
2023-05-06T18:44:38.049Z,19.61
2023-05-06T18:47:08.371Z,19.49
2023-05-06T18:49:35.730Z,19.33
2023-05-06T18:52:05.170Z,19.18
2023-05-06T18:54:31.665Z,19.02
2023-05-06T18:57:00.526Z,18.87
2023-05-06T18:59:27.050Z,18.68
2023-05-06T19:01:53.554Z,18.47
2023-05-06T19:04:28.776Z,18.37
2023-05-06T19:06:55.677Z,18.24
2023-05-06T19:09:25.776Z,18.17
2023-05-06T19:11:54.148Z,18.02
2023-05-06T19:14:21.284Z,17.92
2023-05-06T19:16:49.145Z,17.81
2023-05-06T19:19:17.604Z,17.70
2023-05-06T19:21:44.284Z,17.52
2023-05-06T19:24:14.336Z,17.42
2023-05-06T19:26:40.888Z,17.44
2023-05-06T19:29:07.462Z,17.42
2023-05-06T19:31:34.938Z,17.27
2023-05-06T19:34:01.943Z,17.18
2023-05-06T19:36:28.496Z,17.07
2023-05-06T19:38:54.944Z,16.97
2023-05-06T19:41:21.721Z,16.93
2023-05-06T19:43:48.220Z,16.94
2023-05-06T19:46:16.194Z,16.95
2023-05-06T19:48:54.266Z,17.01
2023-05-06T19:51:24.747Z,16.98
2023-05-06T19:53:51.269Z,17.06
2023-05-06T19:56:18.844Z,16.88
2023-05-06T19:58:45.885Z,16.74
2023-05-06T20:01:14.934Z,16.59
2023-05-06T20:03:41.561Z,16.47
2023-05-06T20:06:08.140Z,16.35
2023-05-06T20:08:35.264Z,16.25
2023-05-06T20:11:03.787Z,16.20
2023-05-06T20:13:30.479Z,16.11
2023-05-06T20:15:57.423Z,16.04
2023-05-06T20:18:26.261Z,16.01
2023-05-06T20:20:52.998Z,15.93
2023-05-06T20:23:19.535Z,16.01
2023-05-06T20:25:46.001Z,15.97
2023-05-06T20:28:12.597Z,15.93
2023-05-06T20:30:39.174Z,15.88
2023-05-06T20:33:05.874Z,15.98
2023-05-06T20:35:38.059Z,16.00
2023-05-06T20:38:05.126Z,15.97
2023-05-06T20:40:35.771Z,15.88
2023-05-06T20:43:02.647Z,15.74
2023-05-06T20:45:30.983Z,15.63
2023-05-06T20:47:58.083Z,15.55
2023-05-06T20:50:24.639Z,15.58
2023-05-06T20:52:51.918Z,15.52
2023-05-06T20:55:20.784Z,15.41
2023-05-06T20:57:47.302Z,15.30
2023-05-06T21:00:15.694Z,15.29
2023-05-06T21:02:44.314Z,15.29
2023-05-06T21:05:11.629Z,15.16
2023-05-06T21:07:38.439Z,15.15
2023-05-06T21:10:07.700Z,15.07
2023-05-06T21:12:36.262Z,15.23
2023-05-06T21:15:02.864Z,15.16
2023-05-06T21:17:29.599Z,15.08
2023-05-06T21:19:56.373Z,14.97
2023-05-06T21:22:23.851Z,14.92
2023-05-06T21:24:58.988Z,14.83
2023-05-06T21:27:25.665Z,14.76
2023-05-06T21:29:52.174Z,14.65
2023-05-06T21:32:18.979Z,14.56
2023-05-06T21:34:45.544Z,14.48
2023-05-06T21:37:15.526Z,14.43
2023-05-06T21:39:43.793Z,14.48
2023-05-06T21:42:10.295Z,14.45
2023-05-06T21:44:37.567Z,14.44
2023-05-06T21:47:05.824Z,14.39
2023-05-06T21:49:32.434Z,14.38
2023-05-06T21:51:58.972Z,14.45
2023-05-06T21:54:25.597Z,14.49
2023-05-06T21:56:52.106Z,14.67
2023-05-06T21:59:19.828Z,14.70
2023-05-06T22:01:46.718Z,14.63
2023-05-06T22:04:13.537Z,14.68
2023-05-06T22:06:40.247Z,14.61
2023-05-06T22:09:09.592Z,14.51
2023-05-06T22:11:40.229Z,14.46
2023-05-06T22:14:07.049Z,14.48
2023-05-06T22:16:37.519Z,14.35
2023-05-06T22:19:05.093Z,14.31
2023-05-06T22:21:32.544Z,14.24
2023-05-06T22:24:01.229Z,14.10
2023-05-06T22:26:28.264Z,13.93
2023-05-06T22:28:59.728Z,13.84
2023-05-06T22:31:26.731Z,13.91
2023-05-06T22:33:57.695Z,13.79
2023-05-06T22:36:26.917Z,13.72
2023-05-06T22:38:55.710Z,13.68
2023-05-06T22:41:26.060Z,13.61
2023-05-06T22:43:52.682Z,13.52
2023-05-06T22:46:19.364Z,13.51
2023-05-06T22:48:46.296Z,13.54
2023-05-06T22:51:15.572Z,13.51
2023-05-06T22:53:48.916Z,13.58
2023-05-06T22:56:15.368Z,13.67
2023-05-06T22:58:41.870Z,13.66
2023-05-06T23:01:10.233Z,13.40
2023-05-06T23:03:36.874Z,13.24
2023-05-06T23:06:07.582Z,13.19
2023-05-06T23:08:36.351Z,13.20
2023-05-06T23:11:02.875Z,13.14
2023-05-06T23:13:31.271Z,13.03
2023-05-06T23:15:57.858Z,13.01
2023-05-06T23:18:24.644Z,12.95
2023-05-06T23:20:51.142Z,12.85
2023-05-06T23:23:17.818Z,12.75
2023-05-06T23:25:44.354Z,12.70
2023-05-06T23:28:10.855Z,12.64
2023-05-06T23:30:41.818Z,12.64
2023-05-06T23:33:08.951Z,12.63
2023-05-06T23:35:35.632Z,12.68
2023-05-06T23:38:02.324Z,12.68
2023-05-06T23:40:28.794Z,12.66
2023-05-06T23:42:57.279Z,12.64
2023-05-06T23:45:27.784Z,12.67
2023-05-06T23:47:54.692Z,12.63
2023-05-06T23:50:22.967Z,12.59
2023-05-06T23:52:49.647Z,12.58
2023-05-06T23:55:16.269Z,12.60
2023-05-06T23:57:42.764Z,12.60
